sensor_id;sensor_type;location;lat;lon;timestamp;temperature;humidity
75091;DHT22;63674;48.048;8.306;2023-05-07T00:00:53;7.60;99.90
75091;DHT22;63674;48.048;8.306;2023-05-07T00:03:21;7.60;99.90
75091;DHT22;63674;48.048;8.306;2023-05-07T00:05:52;7.60;99.90
75091;DHT22;63674;48.048;8.306;2023-05-07T00:08:20;7.50;99.90
75091;DHT22;63674;48.048;8.306;2023-05-07T00:10:49;7.50;99.90
75091;DHT22;63674;48.048;8.306;2023-05-07T00:13:17;7.50;99.90
75091;DHT22;63674;48.048;8.306;2023-05-07T00:15:46;7.40;99.90
75091;DHT22;63674;48.048;8.306;2023-05-07T00:18:15;7.40;99.90
75091;DHT22;63674;48.048;8.306;2023-05-07T00:20:43;7.40;99.90
75091;DHT22;63674;48.048;8.306;2023-05-07T00:23:13;7.40;99.90
75091;DHT22;63674;48.048;8.306;2023-05-07T00:25:42;7.40;99.90
75091;DHT22;63674;48.048;8.306;2023-05-07T00:28:10;7.40;99.90
75091;DHT22;63674;48.048;8.306;2023-05-07T00:30:39;7.50;99.90
75091;DHT22;63674;48.048;8.306;2023-05-07T00:33:07;7.50;99.90
75091;DHT22;63674;48.048;8.306;2023-05-07T00:35:36;7.50;99.90
75091;DHT22;63674;48.048;8.306;2023-05-07T00:38:04;7.50;99.90
75091;DHT22;63674;48.048;8.306;2023-05-07T00:40:35;7.50;99.90
75091;DHT22;63674;48.048;8.306;2023-05-07T00:43:03;7.50;99.90
75091;DHT22;63674;48.048;8.306;2023-05-07T00:45:32;7.50;99.90
75091;DHT22;63674;48.048;8.306;2023-05-07T00:48:02;7.40;99.90
75091;DHT22;63674;48.048;8.306;2023-05-07T00:50:32;7.40;99.90
75091;DHT22;63674;48.048;8.306;2023-05-07T00:53:01;7.40;99.90
75091;DHT22;63674;48.048;8.306;2023-05-07T00:55:30;7.30;99.90
75091;DHT22;63674;48.048;8.306;2023-05-07T00:58:00;7.30;99.90
75091;DHT22;63674;48.048;8.306;2023-05-07T01:00:29;7.40;99.90
75091;DHT22;63674;48.048;8.306;2023-05-07T01:02:58;7.40;99.90
75091;DHT22;63674;48.048;8.306;2023-05-07T01:05:28;7.50;99.90
75091;DHT22;63674;48.048;8.306;2023-05-07T01:07:58;7.50;99.90
75091;DHT22;63674;48.048;8.306;2023-05-07T01:10:27;7.40;99.90
75091;DHT22;63674;48.048;8.306;2023-05-07T01:12:59;7.30;99.90
75091;DHT22;63674;48.048;8.306;2023-05-07T01:15:28;7.40;99.90
75091;DHT22;63674;48.048;8.306;2023-05-07T01:17:57;7.30;99.90
75091;DHT22;63674;48.048;8.306;2023-05-07T01:20:26;7.40;99.90
75091;DHT22;63674;48.048;8.306;2023-05-07T01:22:57;7.40;99.90
75091;DHT22;63674;48.048;8.306;2023-05-07T01:25:27;7.40;99.90
75091;DHT22;63674;48.048;8.306;2023-05-07T01:27:55;7.40;99.90
75091;DHT22;63674;48.048;8.306;2023-05-07T01:30:26;7.40;99.90
75091;DHT22;63674;48.048;8.306;2023-05-07T01:32:58;7.50;99.90
75091;DHT22;63674;48.048;8.306;2023-05-07T01:35:32;7.50;99.90
75091;DHT22;63674;48.048;8.306;2023-05-07T01:38:05;7.50;99.90
75091;DHT22;63674;48.048;8.306;2023-05-07T01:40:35;7.40;99.90
75091;DHT22;63674;48.048;8.306;2023-05-07T01:43:04;7.40;99.90
75091;DHT22;63674;48.048;8.306;2023-05-07T01:45:34;7.40;99.90
75091;DHT22;63674;48.048;8.306;2023-05-07T01:48:04;7.40;99.90
75091;DHT22;63674;48.048;8.306;2023-05-07T01:50:33;6.90;99.90
75091;DHT22;63674;48.048;8.306;2023-05-07T01:53:04;7.40;99.90
75091;DHT22;63674;48.048;8.306;2023-05-07T01:55:32;7.30;99.90
75091;DHT22;63674;48.048;8.306;2023-05-07T01:58:04;7.30;99.90
75091;DHT22;63674;48.048;8.306;2023-05-07T02:00:32;7.30;99.90
75091;DHT22;63674;48.048;8.306;2023-05-07T02:03:01;7.20;99.90
75091;DHT22;63674;48.048;8.306;2023-05-07T02:05:30;7.20;99.90
75091;DHT22;63674;48.048;8.306;2023-05-07T02:07:58;7.10;99.90
75091;DHT22;63674;48.048;8.306;2023-05-07T02:10:28;7.20;99.90
75091;DHT22;63674;48.048;8.306;2023-05-07T02:12:57;7.10;99.90
75091;DHT22;63674;48.048;8.306;2023-05-07T02:15:26;7.00;99.90
75091;DHT22;63674;48.048;8.306;2023-05-07T02:17:59;7.00;99.90
75091;DHT22;63674;48.048;8.306;2023-05-07T02:20:28;6.90;99.90
75091;DHT22;63674;48.048;8.306;2023-05-07T02:22:57;6.90;99.90
75091;DHT22;63674;48.048;8.306;2023-05-07T02:25:25;6.90;99.90
75091;DHT22;63674;48.048;8.306;2023-05-07T02:27:56;6.70;99.90
75091;DHT22;63674;48.048;8.306;2023-05-07T02:30:24;6.60;99.90
75091;DHT22;63674;48.048;8.306;2023-05-07T02:32:53;6.60;99.90
75091;DHT22;63674;48.048;8.306;2023-05-07T02:35:22;6.60;99.90
75091;DHT22;63674;48.048;8.306;2023-05-07T02:37:50;6.50;99.90
75091;DHT22;63674;48.048;8.306;2023-05-07T02:40:19;6.50;99.90
75091;DHT22;63674;48.048;8.306;2023-05-07T02:42:48;6.50;99.90
75091;DHT22;63674;48.048;8.306;2023-05-07T02:45:17;6.60;99.90
75091;DHT22;63674;48.048;8.306;2023-05-07T02:47:46;6.50;99.90
75091;DHT22;63674;48.048;8.306;2023-05-07T02:50:14;6.50;99.90
75091;DHT22;63674;48.048;8.306;2023-05-07T02:52:43;6.50;99.90
75091;DHT22;63674;48.048;8.306;2023-05-07T02:55:11;6.50;99.90
75091;DHT22;63674;48.048;8.306;2023-05-07T02:57:40;6.50;99.90
75091;DHT22;63674;48.048;8.306;2023-05-07T03:00:15;6.40;99.90
75091;DHT22;63674;48.048;8.306;2023-05-07T03:02:45;6.40;99.90
75091;DHT22;63674;48.048;8.306;2023-05-07T03:05:13;6.40;99.90
75091;DHT22;63674;48.048;8.306;2023-05-07T03:07:42;6.40;99.90
75091;DHT22;63674;48.048;8.306;2023-05-07T03:10:13;6.30;99.90
75091;DHT22;63674;48.048;8.306;2023-05-07T03:12:41;6.40;99.90
75091;DHT22;63674;48.048;8.306;2023-05-07T03:15:10;6.40;99.90
75091;DHT22;63674;48.048;8.306;2023-05-07T03:17:40;6.20;99.90
75091;DHT22;63674;48.048;8.306;2023-05-07T03:20:10;6.20;99.90
75091;DHT22;63674;48.048;8.306;2023-05-07T03:22:40;6.10;99.90
75091;DHT22;63674;48.048;8.306;2023-05-07T03:25:09;6.00;99.90
75091;DHT22;63674;48.048;8.306;2023-05-07T03:27:38;6.00;99.90
75091;DHT22;63674;48.048;8.306;2023-05-07T03:30:07;5.90;99.90
75091;DHT22;63674;48.048;8.306;2023-05-07T03:32:37;5.90;99.90
75091;DHT22;63674;48.048;8.306;2023-05-07T03:35:07;5.90;99.90
75091;DHT22;63674;48.048;8.306;2023-05-07T03:37:37;5.90;99.90
75091;DHT22;63674;48.048;8.306;2023-05-07T03:40:06;5.90;99.90
75091;DHT22;63674;48.048;8.306;2023-05-07T03:42:37;5.90;99.90
75091;DHT22;63674;48.048;8.306;2023-05-07T03:45:07;5.90;99.90
75091;DHT22;63674;48.048;8.306;2023-05-07T03:47:36;5.90;99.90
75091;DHT22;63674;48.048;8.306;2023-05-07T03:50:07;5.80;99.90
75091;DHT22;63674;48.048;8.306;2023-05-07T03:52:37;5.80;99.90
75091;DHT22;63674;48.048;8.306;2023-05-07T03:55:06;5.80;99.90
75091;DHT22;63674;48.048;8.306;2023-05-07T03:57:35;5.80;99.90
75091;DHT22;63674;48.048;8.306;2023-05-07T04:00:05;5.80;99.90
75091;DHT22;63674;48.048;8.306;2023-05-07T04:02:35;5.80;99.90
75091;DHT22;63674;48.048;8.306;2023-05-07T04:05:04;5.60;99.90
75091;DHT22;63674;48.048;8.306;2023-05-07T04:07:34;5.40;99.90
75091;DHT22;63674;48.048;8.306;2023-05-07T04:10:02;5.40;99.90
75091;DHT22;63674;48.048;8.306;2023-05-07T04:12:31;5.50;99.90
75091;DHT22;63674;48.048;8.306;2023-05-07T04:14:59;5.40;99.90
75091;DHT22;63674;48.048;8.306;2023-05-07T04:17:28;5.40;99.90
75091;DHT22;63674;48.048;8.306;2023-05-07T04:19:56;5.50;99.90
75091;DHT22;63674;48.048;8.306;2023-05-07T04:22:25;5.60;99.90
75091;DHT22;63674;48.048;8.306;2023-05-07T04:24:55;5.60;99.90
75091;DHT22;63674;48.048;8.306;2023-05-07T04:27:23;5.60;99.90
75091;DHT22;63674;48.048;8.306;2023-05-07T04:29:52;5.70;99.90
75091;DHT22;63674;48.048;8.306;2023-05-07T04:32:22;5.70;99.90
75091;DHT22;63674;48.048;8.306;2023-05-07T04:34:51;5.70;99.90
75091;DHT22;63674;48.048;8.306;2023-05-07T04:37:20;5.70;99.90
75091;DHT22;63674;48.048;8.306;2023-05-07T04:39:48;5.70;99.90
75091;DHT22;63674;48.048;8.306;2023-05-07T04:42:18;5.70;99.90
75091;DHT22;63674;48.048;8.306;2023-05-07T04:44:47;5.80;99.90
75091;DHT22;63674;48.048;8.306;2023-05-07T04:47:15;5.80;99.90
75091;DHT22;63674;48.048;8.306;2023-05-07T04:49:44;5.80;99.90
75091;DHT22;63674;48.048;8.306;2023-05-07T04:52:12;5.80;99.90
75091;DHT22;63674;48.048;8.306;2023-05-07T04:54:42;5.80;99.90
75091;DHT22;63674;48.048;8.306;2023-05-07T04:57:10;5.90;99.90
75091;DHT22;63674;48.048;8.306;2023-05-07T04:59:40;6.00;99.90
75091;DHT22;63674;48.048;8.306;2023-05-07T05:02:10;6.00;99.90
75091;DHT22;63674;48.048;8.306;2023-05-07T05:04:38;6.00;99.90
75091;DHT22;63674;48.048;8.306;2023-05-07T05:07:07;6.10;99.90
75091;DHT22;63674;48.048;8.306;2023-05-07T05:09:35;6.20;99.90
75091;DHT22;63674;48.048;8.306;2023-05-07T05:12:04;6.30;99.90
75091;DHT22;63674;48.048;8.306;2023-05-07T05:14:34;6.40;99.90
75091;DHT22;63674;48.048;8.306;2023-05-07T05:17:04;6.40;99.90
75091;DHT22;63674;48.048;8.306;2023-05-07T05:19:33;6.40;99.90
75091;DHT22;63674;48.048;8.306;2023-05-07T05:22:01;6.50;99.90
75091;DHT22;63674;48.048;8.306;2023-05-07T05:24:30;6.60;99.90
75091;DHT22;63674;48.048;8.306;2023-05-07T05:26:59;6.60;99.90
75091;DHT22;63674;48.048;8.306;2023-05-07T05:29:28;6.70;99.90
75091;DHT22;63674;48.048;8.306;2023-05-07T05:31:58;6.90;99.90
75091;DHT22;63674;48.048;8.306;2023-05-07T05:34:28;7.00;99.90
75091;DHT22;63674;48.048;8.306;2023-05-07T05:36:56;7.20;99.90
75091;DHT22;63674;48.048;8.306;2023-05-07T05:39:25;7.30;99.90
75091;DHT22;63674;48.048;8.306;2023-05-07T05:41:53;7.50;99.90
75091;DHT22;63674;48.048;8.306;2023-05-07T05:44:22;7.60;99.90
75091;DHT22;63674;48.048;8.306;2023-05-07T05:46:50;7.70;99.90
75091;DHT22;63674;48.048;8.306;2023-05-07T05:49:21;7.90;99.90
75091;DHT22;63674;48.048;8.306;2023-05-07T05:51:51;8.00;99.90
75091;DHT22;63674;48.048;8.306;2023-05-07T05:54:19;8.10;99.90
75091;DHT22;63674;48.048;8.306;2023-05-07T05:56:48;8.20;99.90
75091;DHT22;63674;48.048;8.306;2023-05-07T05:59:17;8.40;99.90
75091;DHT22;63674;48.048;8.306;2023-05-07T06:01:45;8.50;99.90
75091;DHT22;63674;48.048;8.306;2023-05-07T06:04:14;8.50;99.90
75091;DHT22;63674;48.048;8.306;2023-05-07T06:06:43;8.60;99.90
75091;DHT22;63674;48.048;8.306;2023-05-07T06:09:12;8.60;99.90
75091;DHT22;63674;48.048;8.306;2023-05-07T06:11:41;8.70;99.90
75091;DHT22;63674;48.048;8.306;2023-05-07T06:14:09;8.70;99.90
75091;DHT22;63674;48.048;8.306;2023-05-07T06:16:38;8.80;99.90
75091;DHT22;63674;48.048;8.306;2023-05-07T06:19:06;8.90;99.90
75091;DHT22;63674;48.048;8.306;2023-05-07T06:21:35;9.00;99.90
75091;DHT22;63674;48.048;8.306;2023-05-07T06:24:03;9.00;99.90
75091;DHT22;63674;48.048;8.306;2023-05-07T06:26:34;9.10;99.90
75091;DHT22;63674;48.048;8.306;2023-05-07T06:29:03;9.10;99.90
75091;DHT22;63674;48.048;8.306;2023-05-07T06:31:31;9.10;99.90
75091;DHT22;63674;48.048;8.306;2023-05-07T06:34:00;9.20;99.90
75091;DHT22;63674;48.048;8.306;2023-05-07T06:36:29;9.60;99.90
75091;DHT22;63674;48.048;8.306;2023-05-07T06:38:58;10.00;99.90
75091;DHT22;63674;48.048;8.306;2023-05-07T06:41:26;10.30;99.90
75091;DHT22;63674;48.048;8.306;2023-05-07T06:43:56;10.40;99.90
75091;DHT22;63674;48.048;8.306;2023-05-07T06:46:25;10.60;99.90
75091;DHT22;63674;48.048;8.306;2023-05-07T06:48:53;10.80;99.90
75091;DHT22;63674;48.048;8.306;2023-05-07T06:51:23;11.00;99.90
75091;DHT22;63674;48.048;8.306;2023-05-07T06:53:52;11.30;99.90
75091;DHT22;63674;48.048;8.306;2023-05-07T06:56:21;11.40;99.90
75091;DHT22;63674;48.048;8.306;2023-05-07T06:58:49;11.50;99.90
75091;DHT22;63674;48.048;8.306;2023-05-07T07:01:19;11.50;99.90
75091;DHT22;63674;48.048;8.306;2023-05-07T07:03:48;11.80;99.90
75091;DHT22;63674;48.048;8.306;2023-05-07T07:06:18;12.40;99.90
75091;DHT22;63674;48.048;8.306;2023-05-07T07:08:46;12.90;99.90
75091;DHT22;63674;48.048;8.306;2023-05-07T07:11:15;13.50;99.90
75091;DHT22;63674;48.048;8.306;2023-05-07T07:13:43;14.10;99.90
75091;DHT22;63674;48.048;8.306;2023-05-07T07:16:12;14.20;99.90
75091;DHT22;63674;48.048;8.306;2023-05-07T07:18:42;14.00;99.90
75091;DHT22;63674;48.048;8.306;2023-05-07T07:21:10;14.00;99.90
75091;DHT22;63674;48.048;8.306;2023-05-07T07:23:39;14.00;99.90
75091;DHT22;63674;48.048;8.306;2023-05-07T07:26:07;14.30;99.90
75091;DHT22;63674;48.048;8.306;2023-05-07T07:28:42;14.60;99.90
75091;DHT22;63674;48.048;8.306;2023-05-07T07:31:11;15.00;99.90
75091;DHT22;63674;48.048;8.306;2023-05-07T07:33:41;14.90;99.90
75091;DHT22;63674;48.048;8.306;2023-05-07T07:36:10;15.10;99.90
75091;DHT22;63674;48.048;8.306;2023-05-07T07:38:38;15.60;99.90
75091;DHT22;63674;48.048;8.306;2023-05-07T07:41:08;16.30;99.90
75091;DHT22;63674;48.048;8.306;2023-05-07T07:43:36;16.90;99.90
75091;DHT22;63674;48.048;8.306;2023-05-07T07:46:05;17.60;99.90
75091;DHT22;63674;48.048;8.306;2023-05-07T07:48:33;17.90;99.90
75091;DHT22;63674;48.048;8.306;2023-05-07T07:51:04;18.20;99.90
75091;DHT22;63674;48.048;8.306;2023-05-07T07:53:32;17.80;99.90
75091;DHT22;63674;48.048;8.306;2023-05-07T07:56:01;17.60;99.90
75091;DHT22;63674;48.048;8.306;2023-05-07T07:58:31;17.60;99.90
75091;DHT22;63674;48.048;8.306;2023-05-07T08:01:02;18.00;99.90
75091;DHT22;63674;48.048;8.306;2023-05-07T08:03:31;18.50;99.90
75091;DHT22;63674;48.048;8.306;2023-05-07T08:06:00;18.60;99.90
75091;DHT22;63674;48.048;8.306;2023-05-07T08:08:30;18.50;99.90
75091;DHT22;63674;48.048;8.306;2023-05-07T08:10:59;18.20;99.90
75091;DHT22;63674;48.048;8.306;2023-05-07T08:13:27;18.00;99.90
75091;DHT22;63674;48.048;8.306;2023-05-07T08:15:56;18.20;99.90
75091;DHT22;63674;48.048;8.306;2023-05-07T08:18:25;18.80;99.90
75091;DHT22;63674;48.048;8.306;2023-05-07T08:20:55;19.10;99.90
75091;DHT22;63674;48.048;8.306;2023-05-07T08:23:24;19.30;99.90
75091;DHT22;63674;48.048;8.306;2023-05-07T08:25:54;19.40;99.90
75091;DHT22;63674;48.048;8.306;2023-05-07T08:28:23;19.70;99.90
75091;DHT22;63674;48.048;8.306;2023-05-07T08:30:51;19.90;99.80
75091;DHT22;63674;48.048;8.306;2023-05-07T08:33:20;20.10;99.90
75091;DHT22;63674;48.048;8.306;2023-05-07T08:35:49;20.30;99.50
75091;DHT22;63674;48.048;8.306;2023-05-07T08:38:17;20.70;90.00
75091;DHT22;63674;48.048;8.306;2023-05-07T08:40:45;20.90;90.10
75091;DHT22;63674;48.048;8.306;2023-05-07T08:43:17;21.30;78.00
75091;DHT22;63674;48.048;8.306;2023-05-07T08:45:49;20.80;79.80
75091;DHT22;63674;48.048;8.306;2023-05-07T08:48:22;20.60;82.40
75091;DHT22;63674;48.048;8.306;2023-05-07T08:50:53;21.00;92.40
75091;DHT22;63674;48.048;8.306;2023-05-07T08:53:21;21.40;75.90
75091;DHT22;63674;48.048;8.306;2023-05-07T08:55:50;21.50;72.90
75091;DHT22;63674;48.048;8.306;2023-05-07T08:58:20;21.50;73.10
75091;DHT22;63674;48.048;8.306;2023-05-07T09:00:49;21.70;84.20
75091;DHT22;63674;48.048;8.306;2023-05-07T09:03:19;21.60;76.70
75091;DHT22;63674;48.048;8.306;2023-05-07T09:05:48;21.40;74.60
75091;DHT22;63674;48.048;8.306;2023-05-07T09:08:16;21.00;66.70
75091;DHT22;63674;48.048;8.306;2023-05-07T09:10:45;20.60;72.00
75091;DHT22;63674;48.048;8.306;2023-05-07T09:13:13;20.60;87.90
75091;DHT22;63674;48.048;8.306;2023-05-07T09:15:43;20.40;94.70
75091;DHT22;63674;48.048;8.306;2023-05-07T09:18:12;20.10;94.40
75091;DHT22;63674;48.048;8.306;2023-05-07T09:20:42;20.00;92.50
75091;DHT22;63674;48.048;8.306;2023-05-07T09:23:11;20.10;98.60
75091;DHT22;63674;48.048;8.306;2023-05-07T09:25:39;20.20;98.60
75091;DHT22;63674;48.048;8.306;2023-05-07T09:28:08;20.30;97.50
75091;DHT22;63674;48.048;8.306;2023-05-07T09:30:37;20.30;96.50
75091;DHT22;63674;48.048;8.306;2023-05-07T09:33:07;20.40;97.80
75091;DHT22;63674;48.048;8.306;2023-05-07T09:35:37;20.40;96.40
75091;DHT22;63674;48.048;8.306;2023-05-07T09:38:06;20.40;96.10
75091;DHT22;63674;48.048;8.306;2023-05-07T09:40:35;20.20;95.50
75091;DHT22;63674;48.048;8.306;2023-05-07T09:43:10;20.00;95.40
75091;DHT22;63674;48.048;8.306;2023-05-07T09:45:39;20.10;98.40
75091;DHT22;63674;48.048;8.306;2023-05-07T09:48:10;20.40;95.30
75091;DHT22;63674;48.048;8.306;2023-05-07T09:50:45;20.50;98.30
75091;DHT22;63674;48.048;8.306;2023-05-07T09:53:17;20.50;96.30
75091;DHT22;63674;48.048;8.306;2023-05-07T09:55:46;20.30;94.30
75091;DHT22;63674;48.048;8.306;2023-05-07T09:58:16;20.10;97.90
75091;DHT22;63674;48.048;8.306;2023-05-07T10:00:46;19.90;95.50
75091;DHT22;63674;48.048;8.306;2023-05-07T10:03:18;19.60;96.30
75091;DHT22;63674;48.048;8.306;2023-05-07T10:05:47;19.10;99.90
75091;DHT22;63674;48.048;8.306;2023-05-07T10:08:17;19.10;99.90
75091;DHT22;63674;48.048;8.306;2023-05-07T10:10:47;18.90;99.90
75091;DHT22;63674;48.048;8.306;2023-05-07T10:13:17;18.80;99.90
75091;DHT22;63674;48.048;8.306;2023-05-07T10:15:47;18.50;99.90
75091;DHT22;63674;48.048;8.306;2023-05-07T10:18:18;18.50;99.90
75091;DHT22;63674;48.048;8.306;2023-05-07T10:20:50;18.30;99.90
75091;DHT22;63674;48.048;8.306;2023-05-07T10:23:23;18.10;99.90
75091;DHT22;63674;48.048;8.306;2023-05-07T10:25:53;17.90;99.90
75091;DHT22;63674;48.048;8.306;2023-05-07T10:28:27;17.80;99.90
75091;DHT22;63674;48.048;8.306;2023-05-07T10:31:08;17.50;99.90
75091;DHT22;63674;48.048;8.306;2023-05-07T10:33:46;16.20;99.90
75091;DHT22;63674;48.048;8.306;2023-05-07T10:36:18;15.30;99.90
75091;DHT22;63674;48.048;8.306;2023-05-07T10:38:47;14.70;99.90
75091;DHT22;63674;48.048;8.306;2023-05-07T10:41:16;14.40;99.90
75091;DHT22;63674;48.048;8.306;2023-05-07T10:43:45;14.30;99.90
75091;DHT22;63674;48.048;8.306;2023-05-07T10:46:15;14.00;99.90
75091;DHT22;63674;48.048;8.306;2023-05-07T10:49:09;14.00;99.90
75091;DHT22;63674;48.048;8.306;2023-05-07T10:51:41;13.80;99.90
75091;DHT22;63674;48.048;8.306;2023-05-07T10:54:19;13.60;99.90
75091;DHT22;63674;48.048;8.306;2023-05-07T10:56:54;13.40;99.90
75091;DHT22;63674;48.048;8.306;2023-05-07T10:59:36;13.20;99.90
75091;DHT22;63674;48.048;8.306;2023-05-07T11:02:11;13.10;99.90
75091;DHT22;63674;48.048;8.306;2023-05-07T11:04:42;12.90;99.90
75091;DHT22;63674;48.048;8.306;2023-05-07T11:07:28;12.70;99.90
75091;DHT22;63674;48.048;8.306;2023-05-07T11:10:05;12.20;99.90
75091;DHT22;63674;48.048;8.306;2023-05-07T11:12:53;12.00;99.90
75091;DHT22;63674;48.048;8.306;2023-05-07T11:15:43;11.90;99.90
75091;DHT22;63674;48.048;8.306;2023-05-07T11:18:14;11.80;99.90
75091;DHT22;63674;48.048;8.306;2023-05-07T11:20:53;11.40;99.90
75091;DHT22;63674;48.048;8.306;2023-05-07T11:26:45;11.50;99.90
75091;DHT22;63674;48.048;8.306;2023-05-07T11:29:16;11.40;99.90
75091;DHT22;63674;48.048;8.306;2023-05-07T11:31:49;11.50;99.90
75091;DHT22;63674;48.048;8.306;2023-05-07T11:34:22;11.60;99.90
75091;DHT22;63674;48.048;8.306;2023-05-07T11:36:54;11.60;99.90
75091;DHT22;63674;48.048;8.306;2023-05-07T11:39:24;11.60;99.90
75091;DHT22;63674;48.048;8.306;2023-05-07T11:41:57;11.70;99.90
75091;DHT22;63674;48.048;8.306;2023-05-07T11:44:25;11.80;99.90
75091;DHT22;63674;48.048;8.306;2023-05-07T11:47:10;11.80;99.90
75091;DHT22;63674;48.048;8.306;2023-05-07T11:49:39;11.60;99.90
75091;DHT22;63674;48.048;8.306;2023-05-07T11:52:10;11.50;99.90
75091;DHT22;63674;48.048;8.306;2023-05-07T11:54:38;11.60;99.90
75091;DHT22;63674;48.048;8.306;2023-05-07T11:57:06;11.80;99.90
75091;DHT22;63674;48.048;8.306;2023-05-07T11:59:42;12.00;99.90
75091;DHT22;63674;48.048;8.306;2023-05-07T12:02:13;12.20;99.90
75091;DHT22;63674;48.048;8.306;2023-05-07T12:04:42;12.40;99.90
75091;DHT22;63674;48.048;8.306;2023-05-07T12:07:13;12.60;99.90
75091;DHT22;63674;48.048;8.306;2023-05-07T12:09:42;12.70;99.90
75091;DHT22;63674;48.048;8.306;2023-05-07T12:12:11;12.60;99.90
75091;DHT22;63674;48.048;8.306;2023-05-07T12:14:43;12.70;99.90
75091;DHT22;63674;48.048;8.306;2023-05-07T12:17:14;12.90;99.90
75091;DHT22;63674;48.048;8.306;2023-05-07T12:19:44;13.30;99.90
75091;DHT22;63674;48.048;8.306;2023-05-07T12:22:14;13.50;99.90
75091;DHT22;63674;48.048;8.306;2023-05-07T12:24:44;13.50;99.90
75091;DHT22;63674;48.048;8.306;2023-05-07T12:27:14;13.60;99.90
75091;DHT22;63674;48.048;8.306;2023-05-07T12:29:44;13.90;99.90
75091;DHT22;63674;48.048;8.306;2023-05-07T12:32:14;14.10;99.90
75091;DHT22;63674;48.048;8.306;2023-05-07T12:34:43;14.40;99.90
75091;DHT22;63674;48.048;8.306;2023-05-07T12:37:13;14.50;99.90
75091;DHT22;63674;48.048;8.306;2023-05-07T12:39:47;14.80;99.90
75091;DHT22;63674;48.048;8.306;2023-05-07T12:42:16;15.10;99.90
75091;DHT22;63674;48.048;8.306;2023-05-07T12:44:50;15.30;99.90
75091;DHT22;63674;48.048;8.306;2023-05-07T12:47:20;15.50;99.90
75091;DHT22;63674;48.048;8.306;2023-05-07T12:49:49;15.70;99.90
75091;DHT22;63674;48.048;8.306;2023-05-07T12:52:20;15.90;99.90
75091;DHT22;63674;48.048;8.306;2023-05-07T12:54:48;15.90;99.90
75091;DHT22;63674;48.048;8.306;2023-05-07T12:57:19;16.00;99.90
75091;DHT22;63674;48.048;8.306;2023-05-07T12:59:48;16.10;99.90
75091;DHT22;63674;48.048;8.306;2023-05-07T13:02:17;16.00;99.90
75091;DHT22;63674;48.048;8.306;2023-05-07T13:04:45;16.10;99.90
75091;DHT22;63674;48.048;8.306;2023-05-07T13:07:14;16.30;99.90
75091;DHT22;63674;48.048;8.306;2023-05-07T13:09:45;16.50;99.90
75091;DHT22;63674;48.048;8.306;2023-05-07T13:12:15;16.60;99.90
75091;DHT22;63674;48.048;8.306;2023-05-07T13:14:43;16.70;99.90
75091;DHT22;63674;48.048;8.306;2023-05-07T13:17:12;16.70;99.90
75091;DHT22;63674;48.048;8.306;2023-05-07T13:19:40;16.60;99.90
75091;DHT22;63674;48.048;8.306;2023-05-07T13:22:09;16.50;99.90
75091;DHT22;63674;48.048;8.306;2023-05-07T13:24:37;16.60;99.90
75091;DHT22;63674;48.048;8.306;2023-05-07T13:27:09;16.60;99.90
75091;DHT22;63674;48.048;8.306;2023-05-07T13:29:38;16.70;99.90
75091;DHT22;63674;48.048;8.306;2023-05-07T13:32:06;16.70;99.90
75091;DHT22;63674;48.048;8.306;2023-05-07T13:34:35;16.70;99.90
75091;DHT22;63674;48.048;8.306;2023-05-07T13:37:04;16.70;99.90
75091;DHT22;63674;48.048;8.306;2023-05-07T13:39:32;16.60;99.90
75091;DHT22;63674;48.048;8.306;2023-05-07T13:42:00;16.40;99.90
75091;DHT22;63674;48.048;8.306;2023-05-07T13:44:30;16.20;99.90
75091;DHT22;63674;48.048;8.306;2023-05-07T13:46:59;15.80;99.90
75091;DHT22;63674;48.048;8.306;2023-05-07T13:49:28;15.40;99.90
75091;DHT22;63674;48.048;8.306;2023-05-07T13:51:57;15.20;99.90
75091;DHT22;63674;48.048;8.306;2023-05-07T13:54:25;15.10;99.90
75091;DHT22;63674;48.048;8.306;2023-05-07T13:56:54;14.90;99.90
75091;DHT22;63674;48.048;8.306;2023-05-07T13:59:22;15.00;99.90
75091;DHT22;63674;48.048;8.306;2023-05-07T14:01:52;15.00;99.90
75091;DHT22;63674;48.048;8.306;2023-05-07T14:04:21;15.00;99.90
75091;DHT22;63674;48.048;8.306;2023-05-07T14:06:50;15.00;99.90
75091;DHT22;63674;48.048;8.306;2023-05-07T14:09:18;14.80;99.90
75091;DHT22;63674;48.048;8.306;2023-05-07T14:11:47;14.50;99.90
75091;DHT22;63674;48.048;8.306;2023-05-07T14:14:18;14.50;99.90
75091;DHT22;63674;48.048;8.306;2023-05-07T14:16:47;14.30;99.90
75091;DHT22;63674;48.048;8.306;2023-05-07T14:19:18;14.20;99.90
75091;DHT22;63674;48.048;8.306;2023-05-07T14:21:47;14.30;99.90
75091;DHT22;63674;48.048;8.306;2023-05-07T14:24:15;14.30;99.90
75091;DHT22;63674;48.048;8.306;2023-05-07T14:27:00;14.30;99.90
75091;DHT22;63674;48.048;8.306;2023-05-07T14:29:29;14.20;99.90
75091;DHT22;63674;48.048;8.306;2023-05-07T14:31:57;14.20;99.90
75091;DHT22;63674;48.048;8.306;2023-05-07T14:34:27;14.10;99.90
75091;DHT22;63674;48.048;8.306;2023-05-07T14:36:57;14.00;99.90
75091;DHT22;63674;48.048;8.306;2023-05-07T14:39:25;13.80;99.90
75091;DHT22;63674;48.048;8.306;2023-05-07T14:41:54;13.70;99.90
75091;DHT22;63674;48.048;8.306;2023-05-07T14:44:22;13.50;99.90
75091;DHT22;63674;48.048;8.306;2023-05-07T14:46:52;13.60;99.90
75091;DHT22;63674;48.048;8.306;2023-05-07T14:49:20;13.60;99.90
75091;DHT22;63674;48.048;8.306;2023-05-07T14:51:50;13.70;99.90
75091;DHT22;63674;48.048;8.306;2023-05-07T14:54:19;13.80;99.90
75091;DHT22;63674;48.048;8.306;2023-05-07T14:56:47;13.80;99.90
75091;DHT22;63674;48.048;8.306;2023-05-07T14:59:16;13.90;99.90
75091;DHT22;63674;48.048;8.306;2023-05-07T15:01:48;14.00;99.90
75091;DHT22;63674;48.048;8.306;2023-05-07T15:04:16;14.20;99.90
75091;DHT22;63674;48.048;8.306;2023-05-07T15:06:45;14.40;99.90
75091;DHT22;63674;48.048;8.306;2023-05-07T15:09:15;14.60;99.90
75091;DHT22;63674;48.048;8.306;2023-05-07T15:11:44;14.90;99.90
75091;DHT22;63674;48.048;8.306;2023-05-07T15:14:12;15.10;99.90
75091;DHT22;63674;48.048;8.306;2023-05-07T15:16:41;15.20;99.90
75091;DHT22;63674;48.048;8.306;2023-05-07T15:19:10;15.30;99.90
75091;DHT22;63674;48.048;8.306;2023-05-07T15:21:38;15.40;99.90
75091;DHT22;63674;48.048;8.306;2023-05-07T15:24:08;15.40;99.90
75091;DHT22;63674;48.048;8.306;2023-05-07T15:26:38;15.40;99.90
75091;DHT22;63674;48.048;8.306;2023-05-07T15:29:06;15.50;99.90
75091;DHT22;63674;48.048;8.306;2023-05-07T15:31:37;15.60;99.90
75091;DHT22;63674;48.048;8.306;2023-05-07T15:34:06;15.50;99.90
75091;DHT22;63674;48.048;8.306;2023-05-07T15:36:34;15.60;99.90
75091;DHT22;63674;48.048;8.306;2023-05-07T15:39:03;15.60;99.90
75091;DHT22;63674;48.048;8.306;2023-05-07T15:41:31;15.60;99.90
75091;DHT22;63674;48.048;8.306;2023-05-07T15:44:02;15.70;99.90
75091;DHT22;63674;48.048;8.306;2023-05-07T15:46:31;15.70;99.90
75091;DHT22;63674;48.048;8.306;2023-05-07T15:49:01;15.80;99.90
75091;DHT22;63674;48.048;8.306;2023-05-07T15:51:34;15.80;99.90
75091;DHT22;63674;48.048;8.306;2023-05-07T15:54:03;15.80;99.90
75091;DHT22;63674;48.048;8.306;2023-05-07T15:56:31;15.80;99.90